Airport ID:KSMD
Update Time (UTC):08/12/2022 17:09
Wind Speed (Knots):6
Wind Direction (Magnetic):50
Temperature (°C):5.3
Dew Point (°C):0.7
Humidity (%):72.5
Altimeter (inHg):30.35
Density Altitude (Feet):
Visibility (Miles):6
Clouds (Hundreds of feet):OVC021
Present Weather:HZ
METAR:METAR KSMD 081705Z AUTO 04005KT 7SM OVC022 05/01 A3034 RMK A01

The data displayed is for advisory purposes only and is not to be used for flight planning or operations.